Time;durP1;ratioP1;P1;durP2;ratioP2;P2;SDS_P1;SDS_P2;PMS_P1;PMS_P2;Temp;Humidity;BMP_temperature;BMP_pressure;BME280_temperature;BME280_humidity;BME280_pressure;Samples;Min_cycle;Max_cycle;Signal;HPM_P1;HPM_P2
2023/07/02 00:00:08;;;;;;;6.00;5.20;;;;;;;21.14;74.58;98488.91;107254;1256;67882;-38
2023/07/02 00:02:36;;;;;;;6.00;5.50;;;;;;;21.12;74.64;98489.25;107250;1257;72759;-38
2023/07/02 00:05:05;;;;;;;6.10;5.50;;;;;;;21.10;74.74;98488.17;107260;1256;60862;-38
2023/07/02 00:07:35;;;;;;;5.60;4.70;;;;;;;21.11;74.66;98484.98;107259;1258;60225;-38
2023/07/02 00:10:04;;;;;;;6.20;5.00;;;;;;;21.15;74.78;98486.55;107302;1256;73895;-38
2023/07/02 00:12:32;;;;;;;5.50;4.80;;;;;;;21.19;74.70;98488.39;107255;1256;67020;-38
2023/07/02 00:15:00;;;;;;;6.00;5.10;;;;;;;21.19;74.59;98490.89;107214;1256;72714;-38
2023/07/02 00:17:28;;;;;;;8.50;5.20;;;;;;;21.19;74.42;98488.41;107203;1256;62314;-38
2023/07/02 00:19:56;;;;;;;5.70;4.90;;;;;;;21.19;74.34;98480.35;107221;1256;60361;-38
2023/07/02 00:22:24;;;;;;;5.90;4.90;;;;;;;21.22;74.36;98476.45;107227;1256;73872;-38
2023/07/02 00:24:55;;;;;;;5.50;4.80;;;;;;;21.24;74.03;98475.85;107225;1256;69005;-38
2023/07/02 00:27:23;;;;;;;6.30;5.30;;;;;;;21.23;74.29;98470.29;107198;1256;72697;-38
2023/07/02 00:29:51;;;;;;;5.60;4.80;;;;;;;21.23;74.18;98471.67;107178;1257;61700;-38
2023/07/02 00:32:19;;;;;;;7.00;5.20;;;;;;;21.24;73.98;98474.98;107265;1256;60487;-38
2023/07/02 00:34:46;;;;;;;5.70;4.90;;;;;;;21.22;73.87;98478.89;107184;1256;73879;-38
2023/07/02 00:37:15;;;;;;;7.20;5.10;;;;;;;21.17;73.88;98481.23;107220;1257;67566;-38
2023/07/02 00:39:42;;;;;;;5.90;5.30;;;;;;;21.10;74.32;98484.85;107161;1257;73182;-38
2023/07/02 00:42:12;;;;;;;6.00;5.00;;;;;;;21.05;74.38;98485.67;107254;1256;60399;-38
2023/07/02 00:44:40;;;;;;;5.70;5.10;;;;;;;21.01;74.61;98481.77;107255;1256;60290;-38
2023/07/02 00:47:08;;;;;;;6.30;5.60;;;;;;;20.98;74.77;98484.67;107252;1256;73848;-38
2023/07/02 00:49:36;;;;;;;7.30;5.40;;;;;;;20.90;74.90;98482.82;107219;1256;66305;-38
2023/07/02 00:52:04;;;;;;;7.10;6.10;;;;;;;20.83;75.46;98486.23;107201;1260;71387;-38
2023/07/02 00:54:32;;;;;;;6.10;5.30;;;;;;;20.74;75.66;98486.41;107246;1256;60456;-38
2023/07/02 00:57:03;;;;;;;7.80;5.30;;;;;;;20.70;75.99;98485.46;107205;1256;60404;-38
2023/07/02 00:59:33;;;;;;;5.90;5.30;;;;;;;20.73;76.23;98486.44;107251;1256;73883;-38
2023/07/02 01:02:03;;;;;;;6.70;6.00;;;;;;;20.77;76.02;98482.05;107163;1256;66781;-38
2023/07/02 01:04:31;;;;;;;6.70;6.00;;;;;;;20.77;76.09;98483.30;107137;1256;71450;-38
2023/07/02 01:06:59;;;;;;;7.10;5.60;;;;;;;20.72;76.24;98488.69;107214;1256;61709;-38
2023/07/02 01:09:28;;;;;;;7.20;5.80;;;;;;;20.66;76.29;98487.95;106949;1256;60775;-38
2023/07/02 01:11:57;;;;;;;7.20;5.50;;;;;;;20.64;76.51;98479.54;107114;1256;74257;-38
2023/07/02 01:14:26;;;;;;;6.70;6.00;;;;;;;20.59;76.70;98480.66;108990;1256;67941;-39
2023/07/02 01:16:54;;;;;;;7.80;5.80;;;;;;;20.55;76.88;98482.54;108495;1256;72015;-38
2023/07/02 01:19:52;;;;;;;7.10;5.60;;;;;;;20.53;77.21;98480.96;107147;1256;62090;-38
2023/07/02 01:22:24;;;;;;;6.90;5.30;;;;;;;20.53;77.26;98473.00;107129;1256;60406;-38
2023/07/02 01:24:51;;;;;;;8.60;5.40;;;;;;;20.56;77.16;98473.45;107087;1256;72406;-38
2023/07/02 01:27:20;;;;;;;6.70;5.50;;;;;;;20.55;77.34;98465.77;107142;1258;66270;-38
2023/07/02 01:29:50;;;;;;;7.10;6.10;;;;;;;20.55;77.30;98470.09;107035;1258;71386;-38
2023/07/02 01:32:18;;;;;;;6.40;5.80;;;;;;;20.50;77.40;98472.16;107084;1256;61725;-38
2023/07/02 01:34:49;;;;;;;6.90;5.30;;;;;;;20.52;77.51;98473.45;107211;1257;60058;-38
2023/07/02 01:37:18;;;;;;;7.50;5.60;;;;;;;20.56;77.48;98471.26;107185;1256;74203;-38
2023/07/02 01:39:45;;;;;;;7.60;5.50;;;;;;;20.55;77.39;98471.05;107116;1256;66313;-38
2023/07/02 01:42:15;;;;;;;6.80;5.90;;;;;;;20.49;77.53;98475.35;107132;1260;72706;-38
2023/07/02 01:44:44;;;;;;;8.40;5.90;;;;;;;20.43;77.68;98472.89;107246;1256;60546;-38
2023/07/02 01:47:11;;;;;;;6.20;5.60;;;;;;;20.37;77.83;98473.63;107241;1256;60316;-38
2023/07/02 01:49:39;;;;;;;7.10;6.00;;;;;;;20.37;77.88;98473.47;107154;1256;73808;-38
2023/07/02 01:52:06;;;;;;;7.90;6.60;;;;;;;20.37;78.07;98474.33;107214;1256;67891;-38
2023/07/02 01:54:35;;;;;;;6.70;6.00;;;;;;;20.37;78.12;98477.42;107196;1256;71764;-38
2023/07/02 01:57:03;;;;;;;6.70;5.90;;;;;;;20.35;78.33;98477.48;107275;1256;61726;-38
2023/07/02 01:59:33;;;;;;;7.20;5.40;;;;;;;20.35;78.21;98475.10;107033;1256;60293;-38
2023/07/02 02:02:04;;;;;;;6.10;5.50;;;;;;;20.36;78.15;98474.05;107571;1253;72723;-40
2023/07/02 02:05:01;;;;;;;7.20;6.50;;;;;;;20.34;78.37;98475.70;107629;1256;68525;-38
2023/07/02 02:07:34;;;;;;;6.90;6.00;;;;;;;20.31;78.40;98472.27;107301;1253;71944;-39
2023/07/02 02:10:04;;;;;;;7.70;6.20;;;;;;;20.26;78.68;98472.49;107396;1255;61653;-38
2023/07/02 02:12:31;;;;;;;9.00;5.60;;;;;;;20.29;78.65;98476.33;107503;1253;60473;-38
2023/07/02 02:14:59;;;;;;;7.60;6.00;;;;;;;20.34;78.48;98476.66;107524;1253;72801;-38
2023/07/02 02:17:26;;;;;;;6.70;6.00;;;;;;;20.37;78.38;98473.77;107555;1253;67726;-38
2023/07/02 02:19:54;;;;;;;6.60;5.90;;;;;;;20.37;78.41;98480.57;107527;1253;71910;-38
2023/07/02 02:22:22;;;;;;;7.20;6.40;;;;;;;20.34;78.35;98475.30;107486;1253;61668;-38
2023/07/02 02:24:49;;;;;;;6.90;5.50;;;;;;;20.32;78.34;98476.48;107332;1253;60329;-38
2023/07/02 02:27:17;;;;;;;8.00;5.70;;;;;;;20.29;78.48;98475.92;107568;1257;74317;-38
2023/07/02 02:29:44;;;;;;;6.60;5.90;;;;;;;20.29;78.55;98473.33;107494;1253;67924;-38
2023/07/02 02:32:12;;;;;;;7.40;6.10;;;;;;;20.29;78.74;98474.51;107362;1254;72994;-38
2023/07/02 02:34:40;;;;;;;7.10;6.20;;;;;;;20.31;78.63;98476.52;107409;1254;61734;-38
2023/07/02 02:37:07;;;;;;;7.40;5.60;;;;;;;20.32;78.45;98473.36;107471;1253;60280;-38
2023/07/02 02:39:36;;;;;;;6.60;5.90;;;;;;;20.29;78.29;98473.49;107507;1253;72563;-38
2023/07/02 02:42:04;;;;;;;6.80;5.80;;;;;;;20.27;78.57;98473.16;107508;1253;66310;-38
2023/07/02 02:44:32;;;;;;;10.10;6.90;;;;;;;20.26;78.58;98471.48;107623;1253;72664;-38
2023/07/02 02:47:00;;;;;;;6.90;6.20;;;;;;;20.26;78.64;98473.15;107621;1253;60422;-38
2023/07/02 02:49:29;;;;;;;6.80;6.10;;;;;;;20.26;78.51;98466.73;107590;1253;60375;-38
2023/07/02 02:51:57;;;;;;;7.30;6.20;;;;;;;20.28;78.47;98471.95;107543;1252;73829;-38
2023/07/02 02:54:24;;;;;;;7.50;6.70;;;;;;;20.29;78.47;98470.98;107436;1256;67890;-38
2023/07/02 02:56:52;;;;;;;9.00;7.10;;;;;;;20.27;78.35;98469.23;107248;1258;72652;-38
2023/07/02 02:59:20;;;;;;;7.60;6.80;;;;;;;20.23;78.67;98467.52;107079;1255;61713;-39
2023/07/02 03:01:48;;;;;;;7.30;6.10;;;;;;;20.21;78.80;98462.91;107070;1254;60435;-39
2023/07/02 03:04:15;;;;;;;8.10;6.50;;;;;;;20.26;78.92;98453.86;107191;1254;72640;-39
2023/07/02 03:06:43;;;;;;;6.70;6.10;;;;;;;20.37;78.96;98447.52;107229;1254;68026;-39
2023/07/02 03:09:11;;;;;;;7.10;6.40;;;;;;;20.47;78.73;98450.57;107291;1253;72702;-38
2023/07/02 03:11:39;;;;;;;7.00;6.40;;;;;;;20.53;78.22;98450.98;107398;1255;60448;-40
2023/07/02 03:14:10;;;;;;;7.70;6.50;;;;;;;20.57;77.88;98452.63;107315;1253;60299;-39
2023/07/02 03:16:38;;;;;;;7.30;6.60;;;;;;;20.65;77.51;98451.88;107378;1253;73854;-39
2023/07/02 03:19:06;;;;;;;7.90;7.10;;;;;;;20.70;77.00;98452.57;107516;1258;67556;-39
2023/07/02 03:21:47;;;;;;;8.60;7.80;;;;;;;20.69;76.94;98452.92;107095;1253;72686;-39
2023/07/02 03:24:20;;;;;;;8.80;7.90;;;;;;;20.65;77.04;98456.03;107271;1253;60542;-39
2023/07/02 03:26:48;;;;;;;8.20;7.40;;;;;;;20.61;77.38;98459.11;107402;1253;60365;-38
2023/07/02 03:29:20;;;;;;;7.70;7.00;;;;;;;20.58;77.27;98454.65;107215;1253;72609;-39
2023/07/02 03:31:51;;;;;;;9.20;7.80;;;;;;;20.55;77.40;98455.48;107086;1253;68302;-40
2023/07/02 03:34:19;;;;;;;9.10;7.90;;;;;;;20.52;77.95;98458.89;107210;1258;72734;-38
2023/07/02 03:36:47;;;;;;;8.80;7.80;;;;;;;20.51;77.99;98462.67;107196;1256;62139;-38
2023/07/02 03:39:24;;;;;;;8.70;7.40;;;;;;;20.52;78.29;98462.44;107286;1253;59126;-40
2023/07/02 03:41:58;;;;;;;8.90;6.90;;;;;;;20.57;78.41;98463.33;107207;1256;75573;-41
2023/07/02 03:44:26;;;;;;;7.70;6.80;;;;;;;20.67;78.08;98458.11;107134;1253;66348;-39
2023/07/02 03:46:54;;;;;;;8.00;7.30;;;;;;;20.68;77.78;98457.05;107249;1253;73044;-38
2023/07/02 03:49:21;;;;;;;9.00;7.50;;;;;;;20.69;77.56;98459.30;107187;1253;60587;-40
2023/07/02 03:51:49;;;;;;;8.40;7.60;;;;;;;20.67;77.56;98459.04;107484;1253;60374;-39
2023/07/02 03:54:17;;;;;;;8.70;7.50;;;;;;;20.70;77.82;98460.73;107350;1253;73938;-39
2023/07/02 03:56:45;;;;;;;8.50;7.70;;;;;;;20.75;77.76;98460.46;107531;1253;66419;-39
2023/07/02 03:59:13;;;;;;;8.80;7.90;;;;;;;20.79;77.68;98460.03;107465;1253;72654;-40
2023/07/02 04:01:40;;;;;;;10.60;9.00;;;;;;;20.79;77.82;98458.13;107576;1253;60422;-40
2023/07/02 04:04:08;;;;;;;11.80;8.20;;;;;;;20.80;77.77;98459.58;107579;1253;60512;-40
2023/07/02 04:06:35;;;;;;;9.20;8.10;;;;;;;20.85;77.42;98466.09;107559;1253;73880;-40
2023/07/02 04:09:04;;;;;;;8.60;7.70;;;;;;;20.92;77.39;98463.69;107447;1253;148446;-40
2023/07/02 04:13:10;;;;;;;9.30;8.30;;;;;;;21.05;77.36;98461.00;104191;1291;601149;-39
2023/07/02 04:15:37;;;;;;;9.20;8.20;;;;;;;21.09;77.10;98457.69;106589;1267;60390;-39
2023/07/02 04:18:05;;;;;;;8.50;7.70;;;;;;;21.18;76.77;98461.63;106643;1267;60042;-40
2023/07/02 04:20:33;;;;;;;8.20;7.40;;;;;;;21.27;76.40;98460.41;106707;1271;72258;-40
2023/07/02 04:23:01;;;;;;;10.00;9.00;;;;;;;21.35;76.06;98465.41;106604;1266;66405;-39
2023/07/02 04:25:28;;;;;;;10.90;9.30;;;;;;;21.37;76.09;98464.16;106648;1267;72689;-39
2023/07/02 04:28:16;;;;;;;9.50;8.60;;;;;;;21.40;75.77;98458.29;106697;1263;61899;-39
2023/07/02 04:30:44;;;;;;;9.80;7.80;;;;;;;21.43;75.92;98457.20;106686;1264;59213;-39
2023/07/02 04:33:14;;;;;;;9.80;8.80;;;;;;;21.51;75.52;98457.63;106726;1263;72261;-40
2023/07/02 04:35:41;;;;;;;10.50;8.30;;;;;;;21.59;75.24;98456.95;106708;1263;66305;-40
2023/07/02 04:38:09;;;;;;;9.90;8.60;;;;;;;21.68;75.18;98457.02;106707;1264;72737;-40
2023/07/02 04:40:36;;;;;;;10.20;7.60;;;;;;;21.77;74.67;98454.11;106618;1264;61678;-40
2023/07/02 04:43:05;;;;;;;8.40;7.50;;;;;;;21.89;73.98;98451.71;107499;1254;59505;-39
2023/07/02 04:45:36;;;;;;;8.20;7.40;;;;;;;22.02;73.29;98451.89;107472;1257;73058;-40
2023/07/02 04:48:04;;;;;;;8.60;7.10;;;;;;;22.14;72.77;98452.82;107532;1253;70368;-39
2023/07/02 04:50:32;;;;;;;7.80;7.00;;;;;;;22.22;71.88;98456.66;107397;1254;72650;-39
2023/07/02 04:52:59;;;;;;;8.30;7.50;;;;;;;22.29;71.45;98455.39;107532;1254;59612;-39
2023/07/02 04:55:27;;;;;;;8.20;6.40;;;;;;;22.32;71.08;98456.16;107434;1256;59583;-39
2023/07/02 04:57:54;;;;;;;6.80;6.10;;;;;;;22.41;70.86;98452.53;107367;1253;71779;-40
2023/07/02 05:00:22;;;;;;;8.60;5.80;;;;;;;22.52;70.23;98460.44;107422;1258;67571;-39
2023/07/02 05:02:50;;;;;;;8.50;6.30;;;;;;;22.59;69.92;98456.86;107309;1254;72696;-39
2023/07/02 05:05:18;;;;;;;8.90;6.40;;;;;;;22.69;69.61;98451.08;107443;1255;60058;-40
2023/07/02 05:07:45;;;;;;;6.90;6.20;;;;;;;22.80;69.26;98449.86;107399;1254;60063;-39
2023/07/02 05:10:13;;;;;;;9.40;5.80;;;;;;;22.90;68.40;98450.67;107365;1254;73072;-39
2023/07/02 05:12:41;;;;;;;6.40;5.20;;;;;;;23.02;67.88;98448.16;107369;1254;66850;-40
2023/07/02 05:15:09;;;;;;;7.20;5.20;;;;;;;23.15;67.73;98446.95;107487;1254;71138;-39
2023/07/02 05:17:37;;;;;;;6.30;5.70;;;;;;;23.25;67.28;98442.98;107525;1254;60182;-39
2023/07/02 05:20:05;;;;;;;6.50;5.60;;;;;;;23.35;66.90;98438.14;107422;1254;60057;-40
2023/07/02 05:22:39;;;;;;;5.90;5.30;;;;;;;23.46;66.64;98443.44;108216;1253;73104;-39
2023/07/02 05:25:09;;;;;;;8.30;5.10;;;;;;;23.55;66.26;98439.69;107354;1254;68868;-39
2023/07/02 05:27:36;;;;;;;6.00;4.60;;;;;;;23.63;65.84;98440.06;108464;1253;72697;-40
2023/07/02 05:30:05;;;;;;;6.90;4.70;;;;;;;23.75;65.15;98437.67;107400;1254;60379;-40
2023/07/02 05:32:34;;;;;;;4.90;3.70;;;;;;;23.86;62.95;98436.38;107371;1253;60148;-39
2023/07/02 05:35:02;;;;;;;5.70;3.70;;;;;;;23.92;60.17;98435.29;107396;1254;73504;-40
2023/07/02 05:37:29;;;;;;;6.00;4.20;;;;;;;23.95;59.91;98436.52;107578;1254;67926;-38
2023/07/02 05:39:57;;;;;;;4.70;4.20;;;;;;;24.00;60.82;98433.81;107386;1254;72723;-38
2023/07/02 05:42:24;;;;;;;5.50;3.90;;;;;;;24.06;60.53;98434.54;107395;1257;59714;-38
2023/07/02 05:44:52;;;;;;;6.90;4.70;;;;;;;24.12;60.60;98432.20;107444;1256;59655;-38
2023/07/02 05:47:20;;;;;;;4.10;3.70;;;;;;;24.17;59.70;98435.73;107453;1252;72174;-38
2023/07/02 05:49:47;;;;;;;6.20;4.10;;;;;;;24.20;59.31;98435.35;107468;1254;67865;-38
2023/07/02 05:52:15;;;;;;;5.00;4.50;;;;;;;24.25;59.31;98435.49;107537;1255;72646;-38
2023/07/02 05:54:42;;;;;;;6.00;4.40;;;;;;;24.26;57.90;98434.41;107667;1253;60079;-38
2023/07/02 05:57:10;;;;;;;5.70;4.80;;;;;;;24.23;58.62;98438.23;107442;1254;59714;-39
2023/07/02 05:59:38;;;;;;;5.20;4.50;;;;;;;24.20;59.37;98440.04;107352;1254;72849;-39
2023/07/02 06:02:06;;;;;;;7.10;5.20;;;;;;;24.21;59.63;98438.18;107581;1254;67927;-38
2023/07/02 06:04:34;;;;;;;5.00;4.40;;;;;;;24.20;59.40;98434.10;107555;1254;71445;-38
2023/07/02 06:07:01;;;;;;;5.50;4.30;;;;;;;24.22;59.25;98433.52;107472;1254;61686;-38
2023/07/02 06:09:29;;;;;;;6.60;4.30;;;;;;;24.27;59.68;98434.69;107492;1254;60032;-39
2023/07/02 06:11:57;;;;;;;5.10;4.60;;;;;;;24.29;59.67;98431.51;107451;1257;71821;-38
2023/07/02 06:14:26;;;;;;;5.20;4.80;;;;;;;24.31;59.39;98438.20;107209;1259;66292;-38
2023/07/02 06:16:57;;;;;;;5.20;4.50;;;;;;;24.36;59.21;98435.73;107264;1254;72700;-38
2023/07/02 06:19:25;;;;;;;5.40;4.60;;;;;;;24.41;58.69;98436.73;107405;1253;60099;-38
2023/07/02 06:21:52;;;;;;;5.00;4.50;;;;;;;24.45;58.30;98434.56;107418;1259;59601;-38
2023/07/02 06:24:20;;;;;;;5.60;4.30;;;;;;;24.49;58.14;98430.52;107425;1254;73063;-38
2023/07/02 06:26:48;;;;;;;7.90;4.20;;;;;;;24.55;58.13;98435.83;107389;1254;67570;-38
2023/07/02 06:29:15;;;;;;;4.90;4.10;;;;;;;24.60;57.34;98436.37;107361;1254;73135;-38
2023/07/02 06:31:43;;;;;;;5.10;4.40;;;;;;;24.62;57.29;98436.11;107315;1254;60184;-38
2023/07/02 06:34:10;;;;;;;5.20;4.40;;;;;;;24.65;57.16;98438.16;107360;1259;59496;-38
2023/07/02 06:36:38;;;;;;;4.70;4.30;;;;;;;24.67;57.48;98438.11;107341;1254;73100;-38
2023/07/02 06:39:05;;;;;;;4.40;4.00;;;;;;;24.69;56.43;98442.38;107379;1253;66668;-38
2023/07/02 06:41:33;;;;;;;5.60;4.70;;;;;;;24.67;56.13;98438.05;107303;1256;72701;-38
2023/07/02 06:44:01;;;;;;;5.00;4.50;;;;;;;24.63;56.52;98438.90;107330;1255;59477;-39
2023/07/02 06:46:29;;;;;;;5.50;4.40;;;;;;;24.63;57.24;98437.73;107518;1253;60039;-39
2023/07/02 06:48:57;;;;;;;8.80;4.90;;;;;;;24.67;57.03;98437.55;107267;1254;71846;-39
2023/07/02 06:51:26;;;;;;;5.20;4.70;;;;;;;24.73;56.30;98438.25;107360;1254;67899;-39
2023/07/02 06:53:53;;;;;;;5.40;4.70;;;;;;;24.77;56.25;98430.80;107262;1254;73140;-39
2023/07/02 06:56:21;;;;;;;7.10;4.70;;;;;;;24.83;56.41;98425.57;107295;1254;59591;-39
2023/07/02 06:58:48;;;;;;;6.40;4.90;;;;;;;24.91;56.07;98422.07;107341;1259;59573;-39
2023/07/02 07:01:16;;;;;;;5.00;4.50;;;;;;;24.99;56.31;98420.60;107475;1259;73169;-39
2023/07/02 07:03:44;;;;;;;5.00;4.50;;;;;;;25.06;55.28;98420.60;107476;1253;67805;-39
2023/07/02 07:06:12;;;;;;;5.40;4.70;;;;;;;25.07;53.58;98419.02;107485;1254;72719;-39
2023/07/02 07:08:39;;;;;;;5.90;4.70;;;;;;;25.08;54.27;98415.40;107424;1253;59644;-38
2023/07/02 07:11:07;;;;;;;4.60;4.20;;;;;;;25.14;54.00;98417.47;107316;1252;59522;-38
2023/07/02 07:13:35;;;;;;;9.50;5.00;;;;;;;25.21;53.51;98414.02;107552;1254;73067;-38
2023/07/02 07:16:03;;;;;;;6.40;4.60;;;;;;;25.25;53.77;98416.36;107452;1254;66421;-38
2023/07/02 07:18:31;;;;;;;7.20;4.50;;;;;;;25.31;53.55;98418.21;108748;1255;72697;-39
2023/07/02 07:21:00;;;;;;;5.20;4.70;;;;;;;25.36;54.01;98410.13;107585;1254;59659;-38
2023/07/02 07:23:27;;;;;;;4.80;4.40;;;;;;;25.44;54.27;98405.09;107464;1253;59151;-38
2023/07/02 07:25:55;;;;;;;5.60;4.20;;;;;;;25.54;53.84;98406.45;107591;1254;73055;-38
2023/07/02 07:28:22;;;;;;;5.90;4.60;;;;;;;25.62;53.61;98405.52;107595;1254;68212;-38
2023/07/02 07:30:50;;;;;;;6.40;4.80;;;;;;;25.69;53.99;98409.65;107596;1254;72674;-38
2023/07/02 07:33:18;;;;;;;5.00;4.50;;;;;;;25.75;53.73;98411.96;107585;1254;60088;-38
2023/07/02 07:35:46;;;;;;;7.80;4.80;;;;;;;25.82;53.53;98408.67;107525;1254;59986;-38
2023/07/02 07:38:17;;;;;;;5.30;4.50;;;;;;;25.88;53.78;98406.22;107450;1254;73003;-38
2023/07/02 07:40:44;;;;;;;4.80;4.10;;;;;;;25.98;53.66;98405.88;107642;1254;67564;-38
2023/07/02 07:43:12;;;;;;;7.30;4.40;;;;;;;26.07;52.80;98401.91;107613;1257;72691;-38
2023/07/02 07:45:40;;;;;;;7.70;4.20;;;;;;;26.16;52.14;98404.84;107600;1253;60500;-38
2023/07/02 07:48:08;;;;;;;6.30;4.10;;;;;;;26.21;51.19;98400.72;107601;1252;60096;-38
2023/07/02 07:50:35;;;;;;;5.40;4.20;;;;;;;26.24;51.33;98401.27;107581;1254;73055;-38
2023/07/02 07:53:03;;;;;;;4.40;4.00;;;;;;;26.30;51.78;98398.05;107608;1257;67619;-38
2023/07/02 07:55:31;;;;;;;5.10;4.10;;;;;;;26.39;51.46;98395.36;107500;1254;72657;-38
2023/07/02 07:57:58;;;;;;;4.60;4.20;;;;;;;26.47;51.92;98394.42;107612;1254;60166;-38
2023/07/02 08:00:26;;;;;;;7.30;4.00;;;;;;;26.56;51.36;98398.56;107615;1254;60069;-38
2023/07/02 08:02:55;;;;;;;6.00;4.50;;;;;;;26.66;50.67;98391.29;107622;1255;72870;-38
2023/07/02 08:05:24;;;;;;;5.20;4.20;;;;;;;26.75;51.19;98391.37;107521;1254;68392;-38
2023/07/02 08:07:53;;;;;;;4.90;4.00;;;;;;;26.86;50.25;98387.52;107696;1253;71778;-38
2023/07/02 08:10:21;;;;;;;4.40;3.70;;;;;;;26.91;48.31;98389.60;107634;1255;60267;-38
2023/07/02 08:12:49;;;;;;;5.20;3.90;;;;;;;26.94;48.22;98387.77;107494;1254;60216;-38
2023/07/02 08:15:16;;;;;;;5.90;3.50;;;;;;;27.00;48.15;98390.64;107513;1254;71470;-38
2023/07/02 08:17:44;;;;;;;4.50;3.80;;;;;;;27.08;47.99;98391.61;107430;1259;67600;-38
2023/07/02 08:20:12;;;;;;;6.80;3.60;;;;;;;27.17;47.09;98389.41;107426;1257;72770;-38
2023/07/02 08:22:40;;;;;;;4.40;3.80;;;;;;;27.25;46.91;98391.14;107412;1253;60492;-39
2023/07/02 08:25:08;;;;;;;3.80;3.40;;;;;;;27.37;47.53;98387.77;107484;1258;61738;-38
2023/07/02 08:27:35;;;;;;;4.60;3.70;;;;;;;27.47;47.58;98390.06;107481;1253;73925;-39
2023/07/02 08:30:04;;;;;;;4.10;3.70;;;;;;;27.53;47.02;98386.38;107450;1255;67704;-39
2023/07/02 08:32:32;;;;;;;4.50;4.00;;;;;;;27.53;47.11;98383.23;107526;1258;72772;-39
2023/07/02 08:35:00;;;;;;;5.30;3.90;;;;;;;27.57;47.43;98387.00;107422;1260;60306;-38
2023/07/02 08:37:27;;;;;;;5.20;4.00;;;;;;;27.67;47.74;98378.34;107544;1254;60388;-39
2023/07/02 08:39:55;;;;;;;4.10;3.20;;;;;;;27.80;46.96;98388.17;107497;1254;73865;-39
2023/07/02 08:42:23;;;;;;;5.90;3.90;;;;;;;27.87;45.75;98388.86;107435;1260;68855;-40
2023/07/02 08:44:53;;;;;;;4.10;3.50;;;;;;;27.90;46.13;98392.02;107281;1257;74859;-39
2023/07/02 08:47:21;;;;;;;4.50;3.50;;;;;;;27.92;45.54;98388.34;107431;1254;60412;-40
2023/07/02 08:49:49;;;;;;;4.90;3.80;;;;;;;27.94;45.55;98387.63;107512;1254;61062;-40
2023/07/02 08:52:17;;;;;;;4.40;3.80;;;;;;;27.99;46.24;98382.59;107584;1255;73862;-38
2023/07/02 08:54:55;;;;;;;3.60;3.30;;;;;;;28.05;45.97;98379.56;107552;1254;66350;-40
2023/07/02 08:57:24;;;;;;;5.80;4.00;;;;;;;28.11;46.13;98378.59;107485;1254;73606;-38
2023/07/02 08:59:52;;;;;;;4.50;3.50;;;;;;;28.18;45.98;98380.04;107436;1257;60322;-38
2023/07/02 09:02:31;;;;;;;6.20;3.80;;;;;;;28.24;45.32;98382.58;107399;1257;59952;-40
2023/07/02 09:05:00;;;;;;;4.00;3.50;;;;;;;28.23;45.07;98380.86;107354;1254;72438;-39
2023/07/02 09:07:29;;;;;;;3.90;3.50;;;;;;;28.24;46.10;98379.96;107542;1254;68407;-40
2023/07/02 09:09:57;;;;;;;4.20;3.30;;;;;;;28.32;45.66;98375.16;107402;1257;71598;-39
2023/07/02 09:12:32;;;;;;;6.30;3.60;;;;;;;28.39;45.62;98372.89;107264;1254;60328;-39
2023/07/02 09:15:05;;;;;;;5.10;3.70;;;;;;;28.45;45.23;98378.79;107359;1258;60293;-39
2023/07/02 09:17:35;;;;;;;8.10;3.80;;;;;;;28.50;45.43;98377.63;107337;1255;73908;-39
2023/07/02 09:20:08;;;;;;;4.80;3.80;;;;;;;28.57;45.65;98381.80;107422;1254;66849;-39
2023/07/02 09:22:37;;;;;;;6.10;3.90;;;;;;;28.63;45.77;98384.23;107464;1260;72756;-39
2023/07/02 09:25:05;;;;;;;4.60;3.50;;;;;;;28.68;45.29;98387.48;107427;1254;60505;-39
2023/07/02 09:27:41;;;;;;;4.80;4.00;;;;;;;28.73;44.92;98378.02;107456;1254;60216;-39
2023/07/02 09:30:15;;;;;;;5.60;3.30;;;;;;;28.80;44.44;98376.27;107439;1254;72600;-39
2023/07/02 09:32:44;;;;;;;4.20;3.80;;;;;;;28.85;44.70;98377.63;107510;1260;67569;-40
2023/07/02 09:35:12;;;;;;;6.00;4.10;;;;;;;28.91;44.32;98374.23;107375;1254;72688;-40
2023/07/02 09:37:44;;;;;;;4.70;3.80;;;;;;;29.03;43.84;98370.98;107308;1260;60397;-40
2023/07/02 09:40:11;;;;;;;5.50;3.90;;;;;;;29.10;43.84;98368.19;107346;1255;60668;-40
2023/07/02 09:42:40;;;;;;;5.00;3.80;;;;;;;29.12;43.41;98372.54;107362;1254;72646;-40
2023/07/02 09:45:08;;;;;;;8.70;4.10;;;;;;;29.10;43.67;98368.95;107488;1254;66609;-40
2023/07/02 09:47:39;;;;;;;4.00;3.70;;;;;;;29.09;43.76;98367.63;107414;1254;73113;-40
2023/07/02 09:50:07;;;;;;;6.60;3.90;;;;;;;29.13;43.46;98363.35;107321;1259;60568;-40
2023/07/02 09:52:34;;;;;;;4.90;3.60;;;;;;;29.15;44.04;98359.45;107399;1260;60299;-40
2023/07/02 09:55:04;;;;;;;5.40;3.50;;;;;;;29.17;44.11;98356.10;107290;1263;71955;-40
2023/07/02 09:57:31;;;;;;;4.80;3.70;;;;;;;29.19;44.28;98357.86;107387;1254;66535;-40
2023/07/02 10:00:00;;;;;;;5.30;3.80;;;;;;;29.23;45.01;98357.10;107419;1257;71364;-40
2023/07/02 10:02:32;;;;;;;5.20;3.70;;;;;;;29.31;44.31;98351.82;107393;1253;60476;-39
2023/07/02 10:05:00;;;;;;;4.10;3.70;;;;;;;29.38;44.33;98346.23;107293;1254;60020;-40
2023/07/02 10:07:29;;;;;;;4.50;4.00;;;;;;;29.40;44.53;98345.21;107471;1254;73850;-40
2023/07/02 10:09:57;;;;;;;5.20;3.90;;;;;;;29.41;43.77;98346.43;107425;1254;68025;-40
2023/07/02 10:12:25;;;;;;;4.10;3.60;;;;;;;29.36;43.64;98340.05;107325;1260;72721;-40
2023/07/02 10:14:54;;;;;;;4.10;3.70;;;;;;;29.30;44.04;98338.73;107507;1258;60540;-40
2023/07/02 10:17:28;;;;;;;4.00;3.60;;;;;;;29.25;44.39;98335.16;107454;1258;60536;-40
2023/07/02 10:20:07;;;;;;;4.60;3.40;;;;;;;29.26;44.02;98332.73;107434;1254;72200;-40
2023/07/02 10:22:45;;;;;;;4.70;4.10;;;;;;;29.24;43.53;98326.86;107401;1254;67727;-40
2023/07/02 10:25:23;;;;;;;4.00;3.60;;;;;;;29.24;44.57;98323.50;107408;1259;73010;-40
2023/07/02 10:27:51;;;;;;;5.20;3.30;;;;;;;29.32;44.90;98319.98;107303;1258;60411;-40
2023/07/02 10:30:18;;;;;;;4.30;3.70;;;;;;;29.50;45.15;98312.73;107407;1254;60351;-40
2023/07/02 10:32:46;;;;;;;5.70;3.70;;;;;;;29.68;44.39;98309.77;107386;1254;73840;-40
2023/07/02 10:35:15;;;;;;;4.50;3.60;;;;;;;29.78;43.21;98314.40;107372;1258;67744;-40
2023/07/02 10:37:43;;;;;;;4.30;3.40;;;;;;;29.74;41.72;98307.05;107327;1257;72702;-40
2023/07/02 10:40:11;;;;;;;3.90;3.50;;;;;;;29.67;41.83;98305.35;107290;1257;60406;-40
2023/07/02 10:42:50;;;;;;;6.20;3.70;;;;;;;29.59;42.90;98304.58;107334;1257;60393;-40
2023/07/02 10:45:18;;;;;;;4.20;3.80;;;;;;;29.50;42.65;98305.63;107338;1256;72605;-40
2023/07/02 10:47:46;;;;;;;4.00;3.50;;;;;;;29.34;42.53;98303.08;107375;1257;66879;-40
2023/07/02 10:50:18;;;;;;;4.40;4.00;;;;;;;29.18;42.14;98304.13;107385;1256;72654;-40
2023/07/02 10:52:46;;;;;;;5.70;3.60;;;;;;;29.02;42.18;98299.90;107293;1257;60124;-40
2023/07/02 10:55:20;;;;;;;4.10;3.60;;;;;;;28.86;42.96;98301.39;107594;1254;60384;-40
2023/07/02 10:57:50;;;;;;;4.90;3.70;;;;;;;28.70;44.29;98301.54;107379;1258;72392;-40
2023/07/02 11:00:19;;;;;;;6.40;4.60;;;;;;;28.52;46.58;98305.08;107449;1257;67574;-40
2023/07/02 11:02:47;;;;;;;8.90;7.50;;;;;;;28.29;48.32;98304.49;107406;1260;72802;-40
2023/07/02 11:05:15;;;;;;;8.10;5.60;;;;;;;28.02;50.59;98310.40;107395;1255;60367;-40
2023/07/02 11:07:43;;;;;;;7.50;4.80;;;;;;;27.78;50.80;98305.73;107363;1254;60613;-40
2023/07/02 11:10:17;;;;;;;7.00;5.00;;;;;;;27.57;52.23;98312.13;107430;1257;73884;-40
2023/07/02 11:12:45;;;;;;;7.00;4.60;;;;;;;27.36;53.84;98313.88;107292;1258;67609;-39
2023/07/02 11:15:14;;;;;;;7.20;4.80;;;;;;;27.19;53.62;98305.68;107344;1257;75411;-40
2023/07/02 11:17:42;;;;;;;5.10;4.30;;;;;;;27.07;53.75;98314.27;107452;1259;60281;-39
2023/07/02 11:20:11;;;;;;;6.90;5.00;;;;;;;26.98;54.04;98329.52;107396;1254;60733;-38
2023/07/02 11:22:39;;;;;;;6.80;4.60;;;;;;;27.00;54.16;98326.45;107520;1254;72671;-38
2023/07/02 11:25:11;;;;;;;7.60;5.90;;;;;;;27.06;54.04;98318.52;107410;1254;67581;-38
2023/07/02 11:27:39;;;;;;;6.40;4.70;;;;;;;27.19;53.45;98316.16;107444;1254;72676;-38
2023/07/02 11:30:07;;;;;;;6.40;4.70;;;;;;;27.26;53.65;98311.13;107367;1254;60418;-39
2023/07/02 11:32:48;;;;;;;7.40;4.50;;;;;;;27.31;53.41;98304.88;107383;1254;60448;-40